createdAt,value
2022-09-01T00:00:14.879Z,88.10
2022-09-01T00:10:20.274Z,88.30
2022-09-01T00:20:24.004Z,89.10
2022-09-01T00:30:29.192Z,90.00
2022-09-01T00:40:33.176Z,89.60
2022-09-01T00:50:39.149Z,90.10
2022-09-01T01:00:43.009Z,90.50
2022-09-01T01:10:48.254Z,90.50
2022-09-01T01:21:19.987Z,90.40
2022-09-01T01:31:25.605Z,90.40
2022-09-01T01:41:32.062Z,90.30
2022-09-01T01:51:37.329Z,90.50
2022-09-01T02:01:42.809Z,90.80
2022-09-01T02:11:48.131Z,91.10
2022-09-01T02:21:56.197Z,91.20
2022-09-01T02:32:01.890Z,91.40
2022-09-01T02:42:08.376Z,92.00
2022-09-01T02:52:15.849Z,92.10
2022-09-01T03:02:19.548Z,92.30
2022-09-01T03:12:24.839Z,92.20
2022-09-01T03:22:29.526Z,92.40
2022-09-01T03:32:37.525Z,92.50
2022-09-01T03:42:41.617Z,93.10
2022-09-01T03:52:47.853Z,93.20
2022-09-01T04:02:57.504Z,93.30
2022-09-01T04:13:03.089Z,93.80
2022-09-01T04:23:10.900Z,94.00
2022-09-01T04:33:17.390Z,94.00
2022-09-01T04:43:21.099Z,94.00
2022-09-01T04:53:28.547Z,94.10
2022-09-01T05:03:32.360Z,94.50
2022-09-01T05:13:38.919Z,94.50
2022-09-01T05:23:42.950Z,94.60
2022-09-01T05:33:50.860Z,94.60
2022-09-01T05:44:00.657Z,94.70
2022-09-01T05:54:09.248Z,94.50
2022-09-01T06:04:13.716Z,94.20
2022-09-01T06:14:19.638Z,93.50
2022-09-01T06:24:23.538Z,93.00
2022-09-01T06:34:30.961Z,92.60
2022-09-01T06:44:40.749Z,92.20
2022-09-01T06:54:46.041Z,91.50
2022-09-01T07:04:49.943Z,91.00
2022-09-01T07:25:20.331Z,89.20
2022-09-01T07:35:26.421Z,87.80
2022-09-01T07:45:30.688Z,87.20
2022-09-01T07:55:35.799Z,85.20
2022-09-01T08:05:41.103Z,85.00
2022-09-01T08:26:14.994Z,82.20
2022-09-01T08:36:23.971Z,80.50
2022-09-01T08:46:35.177Z,79.70
2022-09-01T08:56:41.857Z,78.30
2022-09-01T09:06:59.162Z,77.40
2022-09-01T09:17:05.125Z,77.60
2022-09-01T09:27:11.825Z,77.60
2022-09-01T09:37:30.522Z,77.10
2022-09-01T09:47:45.064Z,75.30
2022-09-01T09:57:52.500Z,73.40
2022-09-01T10:07:58.280Z,71.90
2022-09-01T10:18:20.743Z,71.00
2022-09-01T10:28:26.825Z,69.20
2022-09-01T10:38:32.336Z,69.20
2022-09-01T10:48:48.559Z,67.30
2022-09-01T11:09:36.317Z,66.30
2022-09-01T11:19:48.233Z,61.70
2022-09-01T11:29:55.608Z,61.10
2022-09-01T11:40:03.767Z,59.30
2022-09-01T11:50:19.973Z,57.50
2022-09-01T12:00:31.235Z,57.50
2022-09-01T12:10:38.709Z,58.70
2022-09-01T12:20:43.978Z,58.70
2022-09-01T12:30:47.881Z,58.00
2022-09-01T12:40:56.728Z,57.90
2022-09-01T12:51:02.528Z,57.20
2022-09-01T13:01:16.174Z,57.10
2022-09-01T13:11:21.804Z,54.60
2022-09-01T13:21:27.509Z,53.90
2022-09-01T13:31:32.203Z,52.60
2022-09-01T13:41:40.384Z,51.80
2022-09-01T13:51:44.173Z,50.00
2022-09-01T14:01:50.080Z,50.50
2022-09-01T14:11:54.681Z,49.10
2022-09-01T14:21:59.966Z,47.20
2022-09-01T14:32:04.374Z,46.20
2022-09-01T14:42:10.028Z,46.00
2022-09-01T14:52:14.319Z,45.30
2022-09-01T15:02:19.539Z,46.10
2022-09-01T15:12:24.814Z,45.20
2022-09-01T15:22:30.125Z,45.10
2022-09-01T15:32:33.870Z,43.60
2022-09-01T15:42:41.812Z,43.70
2022-09-01T15:52:52.088Z,45.00
2022-09-01T16:03:01.572Z,43.80
2022-09-01T16:13:05.818Z,42.50
2022-09-01T16:23:17.209Z,43.40
2022-09-01T16:33:23.884Z,44.50
2022-09-01T16:43:42.670Z,44.50
2022-09-01T16:54:02.738Z,43.70
2022-09-01T17:04:24.343Z,44.40
2022-09-01T17:14:41.024Z,44.40
2022-09-01T17:24:50.520Z,44.80
2022-09-01T17:35:02.995Z,45.10
2022-09-01T17:45:21.291Z,43.80
2022-09-01T17:55:43.544Z,44.30
2022-09-01T18:06:01.375Z,45.90
2022-09-01T18:16:12.622Z,47.50
2022-09-01T18:26:27.170Z,48.60
2022-09-01T18:36:41.094Z,48.90
2022-09-01T18:46:55.204Z,51.30
2022-09-01T18:57:04.640Z,52.00
2022-09-01T19:07:23.322Z,52.60
2022-09-01T19:17:51.115Z,53.00
2022-09-01T19:28:04.404Z,55.90
2022-09-01T19:38:09.829Z,56.40
2022-09-01T19:48:20.216Z,56.20
2022-09-01T19:58:29.121Z,54.80
2022-09-01T20:08:43.049Z,54.90
2022-09-01T20:18:54.070Z,55.40
2022-09-01T20:29:04.884Z,56.10
2022-09-01T20:39:36.275Z,56.70
2022-09-01T20:49:41.934Z,56.80
2022-09-01T20:59:50.058Z,57.10
2022-09-01T21:10:06.769Z,56.80
2022-09-01T21:20:21.986Z,56.90
2022-09-01T21:30:31.352Z,57.30
2022-09-01T21:40:35.378Z,58.20
2022-09-01T21:50:41.389Z,59.10
2022-09-01T22:00:45.147Z,59.40
2022-09-01T22:10:53.488Z,59.70
2022-09-01T22:21:03.716Z,60.60
2022-09-01T22:31:13.864Z,61.40
2022-09-01T22:41:20.900Z,61.90
2022-09-01T22:51:27.015Z,62.70
2022-09-01T23:01:33.753Z,63.20
2022-09-01T23:11:39.177Z,64.00
2022-09-01T23:21:42.914Z,64.60
2022-09-01T23:31:49.025Z,65.30
2022-09-01T23:41:52.817Z,65.80
2022-09-01T23:51:57.903Z,66.50
